sensor_id;sensor_type;location;lat;lon;timestamp;temperature;humidity
26687;DHT22;14298;50.900;4.648;2023-02-19T00:01:51;10.50;97.10
26687;DHT22;14298;50.900;4.648;2023-02-19T00:04:20;10.50;97.10
26687;DHT22;14298;50.900;4.648;2023-02-19T00:06:50;10.50;97.10
26687;DHT22;14298;50.900;4.648;2023-02-19T00:09:18;10.50;97.10
26687;DHT22;14298;50.900;4.648;2023-02-19T00:11:48;10.50;97.10
26687;DHT22;14298;50.900;4.648;2023-02-19T00:14:19;10.50;97.10
26687;DHT22;14298;50.900;4.648;2023-02-19T00:16:48;10.50;97.10
26687;DHT22;14298;50.900;4.648;2023-02-19T00:19:18;10.40;97.10
26687;DHT22;14298;50.900;4.648;2023-02-19T00:21:52;10.40;97.10
26687;DHT22;14298;50.900;4.648;2023-02-19T00:24:21;10.40;97.10
26687;DHT22;14298;50.900;4.648;2023-02-19T00:26:49;10.40;97.10
26687;DHT22;14298;50.900;4.648;2023-02-19T00:29:19;10.40;97.10
26687;DHT22;14298;50.900;4.648;2023-02-19T00:31:48;10.40;97.10
26687;DHT22;14298;50.900;4.648;2023-02-19T00:34:16;10.40;97.10
26687;DHT22;14298;50.900;4.648;2023-02-19T00:36:44;10.40;97.10
26687;DHT22;14298;50.900;4.648;2023-02-19T00:39:14;10.40;97.10
26687;DHT22;14298;50.900;4.648;2023-02-19T00:41:44;10.50;97.10
26687;DHT22;14298;50.900;4.648;2023-02-19T00:44:13;10.50;97.10
26687;DHT22;14298;50.900;4.648;2023-02-19T00:46:44;10.50;97.10
26687;DHT22;14298;50.900;4.648;2023-02-19T00:49:19;10.40;97.10
26687;DHT22;14298;50.900;4.648;2023-02-19T00:51:48;10.40;97.10
26687;DHT22;14298;50.900;4.648;2023-02-19T00:54:17;10.50;97.10
26687;DHT22;14298;50.900;4.648;2023-02-19T00:56:46;10.50;97.10
26687;DHT22;14298;50.900;4.648;2023-02-19T00:59:14;10.50;97.10
26687;DHT22;14298;50.900;4.648;2023-02-19T01:01:43;10.40;97.10
26687;DHT22;14298;50.900;4.648;2023-02-19T01:04:12;10.40;97.10
26687;DHT22;14298;50.900;4.648;2023-02-19T01:06:41;10.40;97.10
26687;DHT22;14298;50.900;4.648;2023-02-19T01:09:09;10.40;97.10
26687;DHT22;14298;50.900;4.648;2023-02-19T01:11:37;10.40;97.10
26687;DHT22;14298;50.900;4.648;2023-02-19T01:14:06;10.30;97.10
26687;DHT22;14298;50.900;4.648;2023-02-19T01:16:35;10.30;97.10
26687;DHT22;14298;50.900;4.648;2023-02-19T01:19:03;10.30;97.10
26687;DHT22;14298;50.900;4.648;2023-02-19T01:21:32;10.30;97.10
26687;DHT22;14298;50.900;4.648;2023-02-19T01:24:00;10.40;97.10
26687;DHT22;14298;50.900;4.648;2023-02-19T01:26:30;10.40;97.10
26687;DHT22;14298;50.900;4.648;2023-02-19T01:28:59;10.40;97.10
26687;DHT22;14298;50.900;4.648;2023-02-19T01:31:29;10.40;97.10
26687;DHT22;14298;50.900;4.648;2023-02-19T01:33:59;10.50;97.10
26687;DHT22;14298;50.900;4.648;2023-02-19T01:36:29;10.40;97.10
26687;DHT22;14298;50.900;4.648;2023-02-19T01:38:59;10.40;97.10
26687;DHT22;14298;50.900;4.648;2023-02-19T01:41:30;10.40;97.10
26687;DHT22;14298;50.900;4.648;2023-02-19T01:44:04;10.40;97.10
26687;DHT22;14298;50.900;4.648;2023-02-19T01:46:38;10.40;97.10
26687;DHT22;14298;50.900;4.648;2023-02-19T01:49:27;10.40;97.10
26687;DHT22;14298;50.900;4.648;2023-02-19T01:51:57;10.40;97.10
26687;DHT22;14298;50.900;4.648;2023-02-19T01:54:24;10.40;97.10
26687;DHT22;14298;50.900;4.648;2023-02-19T01:56:53;10.40;97.10
26687;DHT22;14298;50.900;4.648;2023-02-19T01:59:23;10.40;97.10
26687;DHT22;14298;50.900;4.648;2023-02-19T02:01:51;10.40;97.10
26687;DHT22;14298;50.900;4.648;2023-02-19T02:04:20;10.40;97.10
26687;DHT22;14298;50.900;4.648;2023-02-19T02:06:56;10.40;97.10
26687;DHT22;14298;50.900;4.648;2023-02-19T02:09:29;10.40;97.10
26687;DHT22;14298;50.900;4.648;2023-02-19T02:12:16;10.40;97.10
26687;DHT22;14298;50.900;4.648;2023-02-19T02:14:46;10.40;97.10
26687;DHT22;14298;50.900;4.648;2023-02-19T02:28:49;10.20;97.10
26687;DHT22;14298;50.900;4.648;2023-02-19T02:31:18;10.20;97.10
26687;DHT22;14298;50.900;4.648;2023-02-19T02:34:06;10.20;97.10
26687;DHT22;14298;50.900;4.648;2023-02-19T02:36:40;10.20;97.10
26687;DHT22;14298;50.900;4.648;2023-02-19T02:39:12;10.20;97.10
26687;DHT22;14298;50.900;4.648;2023-02-19T02:41:48;10.20;97.10
26687;DHT22;14298;50.900;4.648;2023-02-19T02:44:14;10.20;97.10
26687;DHT22;14298;50.900;4.648;2023-02-19T02:46:44;10.20;97.10
26687;DHT22;14298;50.900;4.648;2023-02-19T02:49:19;10.20;97.10
26687;DHT22;14298;50.900;4.648;2023-02-19T02:51:49;10.20;97.10
26687;DHT22;14298;50.900;4.648;2023-02-19T02:54:28;10.20;97.10
26687;DHT22;14298;50.900;4.648;2023-02-19T02:57:16;10.20;97.10
26687;DHT22;14298;50.900;4.648;2023-02-19T02:59:45;10.20;97.10
26687;DHT22;14298;50.900;4.648;2023-02-19T03:02:17;10.20;97.10
26687;DHT22;14298;50.900;4.648;2023-02-19T03:04:52;10.20;97.10
26687;DHT22;14298;50.900;4.648;2023-02-19T03:07:49;10.20;97.10
26687;DHT22;14298;50.900;4.648;2023-02-19T03:10:21;10.20;97.10
26687;DHT22;14298;50.900;4.648;2023-02-19T03:12:49;10.20;97.10
26687;DHT22;14298;50.900;4.648;2023-02-19T03:15:45;10.20;97.10
26687;DHT22;14298;50.900;4.648;2023-02-19T03:18:27;10.20;97.10
26687;DHT22;14298;50.900;4.648;2023-02-19T03:21:16;10.20;97.10
26687;DHT22;14298;50.900;4.648;2023-02-19T03:23:46;10.20;97.10
26687;DHT22;14298;50.900;4.648;2023-02-19T03:26:27;10.10;97.10
26687;DHT22;14298;50.900;4.648;2023-02-19T03:28:56;10.10;97.10
26687;DHT22;14298;50.900;4.648;2023-02-19T03:31:44;10.10;97.10
26687;DHT22;14298;50.900;4.648;2023-02-19T03:34:16;10.20;97.10
26687;DHT22;14298;50.900;4.648;2023-02-19T03:37:05;10.20;97.10
26687;DHT22;14298;50.900;4.648;2023-02-19T03:39:28;10.20;97.10
26687;DHT22;14298;50.900;4.648;2023-02-19T03:42:04;10.20;97.10
26687;DHT22;14298;50.900;4.648;2023-02-19T03:44:47;10.20;97.10
26687;DHT22;14298;50.900;4.648;2023-02-19T03:47:20;10.20;97.10
26687;DHT22;14298;50.900;4.648;2023-02-19T03:55:36;10.20;97.10
26687;DHT22;14298;50.900;4.648;2023-02-19T03:58:08;10.20;97.10
26687;DHT22;14298;50.900;4.648;2023-02-19T04:06:14;10.20;97.10
26687;DHT22;14298;50.900;4.648;2023-02-19T04:08:46;10.20;97.10
26687;DHT22;14298;50.900;4.648;2023-02-19T04:11:15;10.20;97.10
26687;DHT22;14298;50.900;4.648;2023-02-19T04:13:47;10.20;97.10
26687;DHT22;14298;50.900;4.648;2023-02-19T04:16:21;10.20;97.10
26687;DHT22;14298;50.900;4.648;2023-02-19T04:18:52;10.20;97.10
26687;DHT22;14298;50.900;4.648;2023-02-19T04:21:22;10.20;97.10
26687;DHT22;14298;50.900;4.648;2023-02-19T04:23:51;10.20;97.10
26687;DHT22;14298;50.900;4.648;2023-02-19T04:26:21;10.20;97.10
26687;DHT22;14298;50.900;4.648;2023-02-19T04:28:49;10.20;97.10
26687;DHT22;14298;50.900;4.648;2023-02-19T04:31:18;10.20;97.10
26687;DHT22;14298;50.900;4.648;2023-02-19T04:33:46;10.20;97.10
26687;DHT22;14298;50.900;4.648;2023-02-19T04:36:14;10.20;97.10
26687;DHT22;14298;50.900;4.648;2023-02-19T04:38:43;10.20;97.10
26687;DHT22;14298;50.900;4.648;2023-02-19T04:41:11;10.20;97.10
26687;DHT22;14298;50.900;4.648;2023-02-19T04:43:39;10.20;97.10
26687;DHT22;14298;50.900;4.648;2023-02-19T04:46:07;10.20;97.10
26687;DHT22;14298;50.900;4.648;2023-02-19T04:48:36;10.20;97.10
26687;DHT22;14298;50.900;4.648;2023-02-19T04:51:06;10.20;97.10
26687;DHT22;14298;50.900;4.648;2023-02-19T04:53:35;10.20;97.10
26687;DHT22;14298;50.900;4.648;2023-02-19T04:56:09;10.20;97.10
26687;DHT22;14298;50.900;4.648;2023-02-19T04:58:39;10.20;97.10
26687;DHT22;14298;50.900;4.648;2023-02-19T05:01:09;10.20;97.10
26687;DHT22;14298;50.900;4.648;2023-02-19T05:03:37;10.10;97.10
26687;DHT22;14298;50.900;4.648;2023-02-19T05:06:09;10.10;97.10
26687;DHT22;14298;50.900;4.648;2023-02-19T05:08:37;10.10;97.10
26687;DHT22;14298;50.900;4.648;2023-02-19T05:11:08;10.10;97.10
26687;DHT22;14298;50.900;4.648;2023-02-19T05:13:37;10.10;97.10
26687;DHT22;14298;50.900;4.648;2023-02-19T05:16:12;10.10;97.10
26687;DHT22;14298;50.900;4.648;2023-02-19T05:18:43;10.10;97.10
26687;DHT22;14298;50.900;4.648;2023-02-19T05:21:12;10.10;97.10
26687;DHT22;14298;50.900;4.648;2023-02-19T05:24:00;10.10;97.10
26687;DHT22;14298;50.900;4.648;2023-02-19T05:26:29;10.10;97.10
26687;DHT22;14298;50.900;4.648;2023-02-19T05:28:57;10.00;97.10
26687;DHT22;14298;50.900;4.648;2023-02-19T05:31:26;10.00;97.10
26687;DHT22;14298;50.900;4.648;2023-02-19T05:33:55;10.00;97.10
26687;DHT22;14298;50.900;4.648;2023-02-19T05:36:24;10.00;97.10
26687;DHT22;14298;50.900;4.648;2023-02-19T05:38:54;10.00;97.10
26687;DHT22;14298;50.900;4.648;2023-02-19T05:41:25;10.10;97.10
26687;DHT22;14298;50.900;4.648;2023-02-19T05:43:54;10.00;97.10
26687;DHT22;14298;50.900;4.648;2023-02-19T05:46:26;10.10;97.10
26687;DHT22;14298;50.900;4.648;2023-02-19T05:48:56;10.00;97.10
26687;DHT22;14298;50.900;4.648;2023-02-19T05:51:28;10.00;97.10
26687;DHT22;14298;50.900;4.648;2023-02-19T05:53:56;10.00;97.10
26687;DHT22;14298;50.900;4.648;2023-02-19T05:56:39;10.00;97.10
26687;DHT22;14298;50.900;4.648;2023-02-19T05:59:19;10.00;97.10
26687;DHT22;14298;50.900;4.648;2023-02-19T06:01:50;10.00;97.10
26687;DHT22;14298;50.900;4.648;2023-02-19T06:04:19;10.00;97.10
26687;DHT22;14298;50.900;4.648;2023-02-19T06:06:47;10.00;97.10
26687;DHT22;14298;50.900;4.648;2023-02-19T06:09:16;10.00;97.10
26687;DHT22;14298;50.900;4.648;2023-02-19T06:11:44;10.00;97.10
26687;DHT22;14298;50.900;4.648;2023-02-19T06:14:13;10.00;97.10
26687;DHT22;14298;50.900;4.648;2023-02-19T06:16:41;10.00;97.10
26687;DHT22;14298;50.900;4.648;2023-02-19T06:19:10;10.00;97.10
26687;DHT22;14298;50.900;4.648;2023-02-19T06:21:38;10.00;97.10
26687;DHT22;14298;50.900;4.648;2023-02-19T06:24:08;10.00;97.10
26687;DHT22;14298;50.900;4.648;2023-02-19T06:26:36;10.00;97.10
26687;DHT22;14298;50.900;4.648;2023-02-19T06:29:05;10.00;97.10
26687;DHT22;14298;50.900;4.648;2023-02-19T06:31:33;9.90;97.10
26687;DHT22;14298;50.900;4.648;2023-02-19T06:34:05;9.90;97.10
26687;DHT22;14298;50.900;4.648;2023-02-19T06:36:33;9.90;97.10
26687;DHT22;14298;50.900;4.648;2023-02-19T06:39:21;9.90;97.10
26687;DHT22;14298;50.900;4.648;2023-02-19T06:41:49;9.90;97.10
26687;DHT22;14298;50.900;4.648;2023-02-19T06:44:18;9.90;97.10
26687;DHT22;14298;50.900;4.648;2023-02-19T06:46:46;9.90;97.10
26687;DHT22;14298;50.900;4.648;2023-02-19T06:49:19;9.90;97.10
26687;DHT22;14298;50.900;4.648;2023-02-19T06:51:48;9.90;97.10
26687;DHT22;14298;50.900;4.648;2023-02-19T06:54:16;9.90;97.10
26687;DHT22;14298;50.900;4.648;2023-02-19T06:56:45;9.90;97.10
26687;DHT22;14298;50.900;4.648;2023-02-19T06:59:14;9.90;97.10
26687;DHT22;14298;50.900;4.648;2023-02-19T07:01:46;9.90;97.10
26687;DHT22;14298;50.900;4.648;2023-02-19T07:04:14;9.90;97.10
26687;DHT22;14298;50.900;4.648;2023-02-19T07:06:43;9.90;97.10
26687;DHT22;14298;50.900;4.648;2023-02-19T07:09:11;10.00;97.10
26687;DHT22;14298;50.900;4.648;2023-02-19T07:11:40;10.00;97.10
26687;DHT22;14298;50.900;4.648;2023-02-19T07:14:12;10.00;97.10
26687;DHT22;14298;50.900;4.648;2023-02-19T07:16:40;10.00;97.10
26687;DHT22;14298;50.900;4.648;2023-02-19T07:19:09;10.00;97.10
26687;DHT22;14298;50.900;4.648;2023-02-19T07:21:38;10.00;97.10
26687;DHT22;14298;50.900;4.648;2023-02-19T07:24:09;10.00;97.10
26687;DHT22;14298;50.900;4.648;2023-02-19T07:26:37;10.00;97.10
26687;DHT22;14298;50.900;4.648;2023-02-19T07:29:05;10.00;97.10
26687;DHT22;14298;50.900;4.648;2023-02-19T07:31:34;10.00;97.10
26687;DHT22;14298;50.900;4.648;2023-02-19T07:34:02;10.10;97.10
26687;DHT22;14298;50.900;4.648;2023-02-19T07:36:31;10.10;97.10
26687;DHT22;14298;50.900;4.648;2023-02-19T07:38:59;10.10;97.10
26687;DHT22;14298;50.900;4.648;2023-02-19T07:41:28;10.10;97.10
26687;DHT22;14298;50.900;4.648;2023-02-19T07:43:56;10.20;97.10
26687;DHT22;14298;50.900;4.648;2023-02-19T07:46:25;10.20;97.10
26687;DHT22;14298;50.900;4.648;2023-02-19T07:48:53;10.20;97.10
26687;DHT22;14298;50.900;4.648;2023-02-19T07:51:22;10.20;97.10
26687;DHT22;14298;50.900;4.648;2023-02-19T07:53:50;10.10;97.10
26687;DHT22;14298;50.900;4.648;2023-02-19T07:56:19;10.10;97.10
26687;DHT22;14298;50.900;4.648;2023-02-19T07:58:48;10.10;97.10
26687;DHT22;14298;50.900;4.648;2023-02-19T08:01:21;10.10;97.10
26687;DHT22;14298;50.900;4.648;2023-02-19T08:04:09;10.00;97.10
26687;DHT22;14298;50.900;4.648;2023-02-19T08:06:38;10.00;97.10
26687;DHT22;14298;50.900;4.648;2023-02-19T08:09:06;10.00;97.10
26687;DHT22;14298;50.900;4.648;2023-02-19T08:11:35;10.00;97.10
26687;DHT22;14298;50.900;4.648;2023-02-19T08:14:27;10.00;97.10
26687;DHT22;14298;50.900;4.648;2023-02-19T08:16:56;10.10;97.10
26687;DHT22;14298;50.900;4.648;2023-02-19T08:19:24;10.10;97.10
26687;DHT22;14298;50.900;4.648;2023-02-19T08:21:52;10.10;97.10
26687;DHT22;14298;50.900;4.648;2023-02-19T08:24:21;10.00;97.10
26687;DHT22;14298;50.900;4.648;2023-02-19T08:26:49;10.00;97.10
26687;DHT22;14298;50.900;4.648;2023-02-19T08:29:18;9.90;97.10
26687;DHT22;14298;50.900;4.648;2023-02-19T08:31:46;9.90;97.10
26687;DHT22;14298;50.900;4.648;2023-02-19T08:34:15;9.90;97.10
26687;DHT22;14298;50.900;4.648;2023-02-19T08:36:43;9.90;97.10
26687;DHT22;14298;50.900;4.648;2023-02-19T08:39:11;10.00;97.10
26687;DHT22;14298;50.900;4.648;2023-02-19T08:41:40;10.00;97.10
26687;DHT22;14298;50.900;4.648;2023-02-19T08:44:08;10.00;97.10
26687;DHT22;14298;50.900;4.648;2023-02-19T08:46:37;10.10;97.10
26687;DHT22;14298;50.900;4.648;2023-02-19T08:49:05;10.20;97.10
26687;DHT22;14298;50.900;4.648;2023-02-19T08:51:33;10.30;97.10
26687;DHT22;14298;50.900;4.648;2023-02-19T08:54:02;10.30;97.10
26687;DHT22;14298;50.900;4.648;2023-02-19T08:56:31;10.30;97.10
26687;DHT22;14298;50.900;4.648;2023-02-19T08:58:59;10.40;97.10
26687;DHT22;14298;50.900;4.648;2023-02-19T09:01:27;10.30;97.10
26687;DHT22;14298;50.900;4.648;2023-02-19T09:03:56;10.30;97.10
26687;DHT22;14298;50.900;4.648;2023-02-19T09:06:24;10.30;97.10
26687;DHT22;14298;50.900;4.648;2023-02-19T09:08:52;10.30;97.10
26687;DHT22;14298;50.900;4.648;2023-02-19T09:11:21;10.40;97.10
26687;DHT22;14298;50.900;4.648;2023-02-19T09:13:49;10.40;97.10
26687;DHT22;14298;50.900;4.648;2023-02-19T09:16:17;10.40;97.10
26687;DHT22;14298;50.900;4.648;2023-02-19T09:18:45;10.50;97.10
26687;DHT22;14298;50.900;4.648;2023-02-19T09:21:14;10.50;97.10
26687;DHT22;14298;50.900;4.648;2023-02-19T09:23:42;10.60;97.10
26687;DHT22;14298;50.900;4.648;2023-02-19T09:26:10;10.60;97.10
26687;DHT22;14298;50.900;4.648;2023-02-19T09:28:40;10.70;97.10
26687;DHT22;14298;50.900;4.648;2023-02-19T09:31:12;10.80;97.10
26687;DHT22;14298;50.900;4.648;2023-02-19T09:33:45;10.80;97.10
26687;DHT22;14298;50.900;4.648;2023-02-19T09:36:14;10.80;97.10
26687;DHT22;14298;50.900;4.648;2023-02-19T09:38:43;10.80;97.10
26687;DHT22;14298;50.900;4.648;2023-02-19T09:41:29;10.80;97.10
26687;DHT22;14298;50.900;4.648;2023-02-19T09:44:00;10.90;97.10
26687;DHT22;14298;50.900;4.648;2023-02-19T09:46:46;11.00;97.10
26687;DHT22;14298;50.900;4.648;2023-02-19T09:52:05;11.30;97.10
26687;DHT22;14298;50.900;4.648;2023-02-19T09:54:31;11.30;97.10
26687;DHT22;14298;50.900;4.648;2023-02-19T09:57:01;11.50;97.10
26687;DHT22;14298;50.900;4.648;2023-02-19T09:59:45;11.60;97.10
26687;DHT22;14298;50.900;4.648;2023-02-19T10:02:15;11.60;97.10
26687;DHT22;14298;50.900;4.648;2023-02-19T10:04:45;11.50;97.10
26687;DHT22;14298;50.900;4.648;2023-02-19T10:07:27;11.40;97.10
26687;DHT22;14298;50.900;4.648;2023-02-19T10:09:58;11.30;97.10
26687;DHT22;14298;50.900;4.648;2023-02-19T10:12:31;11.30;97.10
26687;DHT22;14298;50.900;4.648;2023-02-19T10:17:49;11.40;97.10
26687;DHT22;14298;50.900;4.648;2023-02-19T10:20:20;11.50;97.10
26687;DHT22;14298;50.900;4.648;2023-02-19T10:22:55;11.50;97.10
26687;DHT22;14298;50.900;4.648;2023-02-19T10:25:22;11.60;97.10
26687;DHT22;14298;50.900;4.648;2023-02-19T10:27:50;11.60;97.10
26687;DHT22;14298;50.900;4.648;2023-02-19T10:30:25;11.70;97.10
26687;DHT22;14298;50.900;4.648;2023-02-19T10:32:59;11.80;97.10
26687;DHT22;14298;50.900;4.648;2023-02-19T10:35:29;12.00;97.10
26687;DHT22;14298;50.900;4.648;2023-02-19T10:37:58;12.00;97.10
26687;DHT22;14298;50.900;4.648;2023-02-19T10:40:27;12.00;97.10
26687;DHT22;14298;50.900;4.648;2023-02-19T10:42:58;11.90;97.10
26687;DHT22;14298;50.900;4.648;2023-02-19T10:45:37;11.70;97.10
26687;DHT22;14298;50.900;4.648;2023-02-19T10:48:05;11.60;97.10
26687;DHT22;14298;50.900;4.648;2023-02-19T10:50:36;11.50;97.10
26687;DHT22;14298;50.900;4.648;2023-02-19T10:53:07;11.50;97.10
26687;DHT22;14298;50.900;4.648;2023-02-19T10:55:38;11.60;97.10
26687;DHT22;14298;50.900;4.648;2023-02-19T10:58:22;11.70;97.10
26687;DHT22;14298;50.900;4.648;2023-02-19T11:01:10;11.70;97.10
26687;DHT22;14298;50.900;4.648;2023-02-19T11:03:39;11.70;97.10
26687;DHT22;14298;50.900;4.648;2023-02-19T11:06:09;11.60;97.10
26687;DHT22;14298;50.900;4.648;2023-02-19T11:08:51;11.60;97.10
26687;DHT22;14298;50.900;4.648;2023-02-19T11:11:27;11.70;97.10
26687;DHT22;14298;50.900;4.648;2023-02-19T11:13:57;11.70;97.10
26687;DHT22;14298;50.900;4.648;2023-02-19T11:19:30;11.70;97.10
26687;DHT22;14298;50.900;4.648;2023-02-19T11:22:00;11.60;97.10
26687;DHT22;14298;50.900;4.648;2023-02-19T11:24:36;11.70;97.10
26687;DHT22;14298;50.900;4.648;2023-02-19T11:27:14;11.80;97.10
26687;DHT22;14298;50.900;4.648;2023-02-19T11:29:38;11.90;97.10
26687;DHT22;14298;50.900;4.648;2023-02-19T11:32:24;11.90;97.10
26687;DHT22;14298;50.900;4.648;2023-02-19T11:35:16;11.80;97.10
26687;DHT22;14298;50.900;4.648;2023-02-19T11:38:00;11.80;97.10
26687;DHT22;14298;50.900;4.648;2023-02-19T11:40:32;11.90;97.10
26687;DHT22;14298;50.900;4.648;2023-02-19T11:43:19;11.90;97.10
26687;DHT22;14298;50.900;4.648;2023-02-19T11:46:01;11.90;97.10
26687;DHT22;14298;50.900;4.648;2023-02-19T11:51:45;11.70;97.10
26687;DHT22;14298;50.900;4.648;2023-02-19T12:00:26;11.50;97.10
26687;DHT22;14298;50.900;4.648;2023-02-19T12:05:40;11.30;97.10
26687;DHT22;14298;50.900;4.648;2023-02-19T12:16:58;11.40;97.10
26687;DHT22;14298;50.900;4.648;2023-02-19T12:19:36;11.40;97.10
26687;DHT22;14298;50.900;4.648;2023-02-19T12:22:05;11.50;97.10
26687;DHT22;14298;50.900;4.648;2023-02-19T12:36:17;11.60;97.10
26687;DHT22;14298;50.900;4.648;2023-02-19T12:44:41;11.50;97.10
26687;DHT22;14298;50.900;4.648;2023-02-19T12:47:24;11.40;97.10
26687;DHT22;14298;50.900;4.648;2023-02-19T12:55:55;11.30;97.10
26687;DHT22;14298;50.900;4.648;2023-02-19T13:01:29;11.20;97.10
26687;DHT22;14298;50.900;4.648;2023-02-19T13:06:58;10.80;97.10
26687;DHT22;14298;50.900;4.648;2023-02-19T13:09:49;10.70;97.10
26687;DHT22;14298;50.900;4.648;2023-02-19T13:12:23;10.60;97.10
26687;DHT22;14298;50.900;4.648;2023-02-19T13:14:55;10.60;97.10
26687;DHT22;14298;50.900;4.648;2023-02-19T13:17:30;10.70;97.10
26687;DHT22;14298;50.900;4.648;2023-02-19T13:37:53;11.10;97.10
26687;DHT22;14298;50.900;4.648;2023-02-19T13:40:34;11.20;97.10
26687;DHT22;14298;50.900;4.648;2023-02-19T13:43:19;11.20;97.10
26687;DHT22;14298;50.900;4.648;2023-02-19T13:48:34;11.30;97.10
26687;DHT22;14298;50.900;4.648;2023-02-19T13:53:56;10.90;97.10
26687;DHT22;14298;50.900;4.648;2023-02-19T13:56:38;10.90;97.10
26687;DHT22;14298;50.900;4.648;2023-02-19T14:10:02;10.70;97.10
26687;DHT22;14298;50.900;4.648;2023-02-19T14:12:35;10.70;97.10
26687;DHT22;14298;50.900;4.648;2023-02-19T14:18:45;10.50;97.10
26687;DHT22;14298;50.900;4.648;2023-02-19T14:21:16;10.40;97.10
26687;DHT22;14298;50.900;4.648;2023-02-19T14:23:50;10.30;97.10
26687;DHT22;14298;50.900;4.648;2023-02-19T14:26:16;10.30;97.10
26687;DHT22;14298;50.900;4.648;2023-02-19T14:28:46;10.40;97.10
26687;DHT22;14298;50.900;4.648;2023-02-19T14:31:32;10.30;97.10
26687;DHT22;14298;50.900;4.648;2023-02-19T14:36:59;10.20;97.10
26687;DHT22;14298;50.900;4.648;2023-02-19T14:39:31;10.20;97.10
26687;DHT22;14298;50.900;4.648;2023-02-19T14:42:02;10.20;97.10
26687;DHT22;14298;50.900;4.648;2023-02-19T14:47:17;10.20;97.10
26687;DHT22;14298;50.900;4.648;2023-02-19T14:50:13;10.20;97.10
26687;DHT22;14298;50.900;4.648;2023-02-19T14:52:40;10.10;97.10
26687;DHT22;14298;50.900;4.648;2023-02-19T14:55:26;10.00;97.10
26687;DHT22;14298;50.900;4.648;2023-02-19T14:58:16;10.00;97.10
26687;DHT22;14298;50.900;4.648;2023-02-19T15:00:44;9.90;97.10
26687;DHT22;14298;50.900;4.648;2023-02-19T15:03:31;9.80;97.10
26687;DHT22;14298;50.900;4.648;2023-02-19T15:06:06;9.70;97.10
26687;DHT22;14298;50.900;4.648;2023-02-19T15:08:51;9.70;97.10
26687;DHT22;14298;50.900;4.648;2023-02-19T15:11:13;9.70;97.10
26687;DHT22;14298;50.900;4.648;2023-02-19T15:13:40;9.70;97.10
26687;DHT22;14298;50.900;4.648;2023-02-19T15:16:18;9.70;97.10
26687;DHT22;14298;50.900;4.648;2023-02-19T15:18:48;9.70;97.10
26687;DHT22;14298;50.900;4.648;2023-02-19T15:21:26;9.90;97.10
26687;DHT22;14298;50.900;4.648;2023-02-19T15:24:00;10.00;97.10
26687;DHT22;14298;50.900;4.648;2023-02-19T15:26:37;10.00;97.10
26687;DHT22;14298;50.900;4.648;2023-02-19T15:29:12;10.00;97.10
26687;DHT22;14298;50.900;4.648;2023-02-19T15:32:00;9.90;97.10
26687;DHT22;14298;50.900;4.648;2023-02-19T15:34:30;10.00;97.10
26687;DHT22;14298;50.900;4.648;2023-02-19T15:37:04;10.00;97.10
26687;DHT22;14298;50.900;4.648;2023-02-19T15:39:52;10.00;97.10
26687;DHT22;14298;50.900;4.648;2023-02-19T15:42:27;10.00;97.10
26687;DHT22;14298;50.900;4.648;2023-02-19T15:48:15;10.10;97.10
26687;DHT22;14298;50.900;4.648;2023-02-19T15:50:46;10.10;97.10
26687;DHT22;14298;50.900;4.648;2023-02-19T15:53:24;10.00;97.10
26687;DHT22;14298;50.900;4.648;2023-02-19T15:56:11;10.00;97.10
26687;DHT22;14298;50.900;4.648;2023-02-19T15:58:47;10.00;97.10
26687;DHT22;14298;50.900;4.648;2023-02-19T16:01:15;9.90;97.10
26687;DHT22;14298;50.900;4.648;2023-02-19T16:03:43;9.90;97.10
26687;DHT22;14298;50.900;4.648;2023-02-19T16:06:16;9.80;97.10
26687;DHT22;14298;50.900;4.648;2023-02-19T16:09:05;9.70;97.10
26687;DHT22;14298;50.900;4.648;2023-02-19T16:11:37;9.70;97.10
26687;DHT22;14298;50.900;4.648;2023-02-19T16:17:11;9.60;97.10
26687;DHT22;14298;50.900;4.648;2023-02-19T16:19:55;9.50;97.10
26687;DHT22;14298;50.900;4.648;2023-02-19T16:22:26;9.50;97.10
26687;DHT22;14298;50.900;4.648;2023-02-19T16:24:57;9.60;97.10
26687;DHT22;14298;50.900;4.648;2023-02-19T16:27:45;9.60;97.10
26687;DHT22;14298;50.900;4.648;2023-02-19T16:30:29;9.50;97.10
26687;DHT22;14298;50.900;4.648;2023-02-19T16:33:20;9.50;97.10
26687;DHT22;14298;50.900;4.648;2023-02-19T16:35:49;9.50;97.10
26687;DHT22;14298;50.900;4.648;2023-02-19T16:38:19;9.40;97.10
26687;DHT22;14298;50.900;4.648;2023-02-19T16:43:26;9.40;97.10
26687;DHT22;14298;50.900;4.648;2023-02-19T16:45:57;9.30;97.10
26687;DHT22;14298;50.900;4.648;2023-02-19T16:48:27;9.30;97.10
26687;DHT22;14298;50.900;4.648;2023-02-19T16:50:55;9.40;97.10
26687;DHT22;14298;50.900;4.648;2023-02-19T16:53:24;9.40;97.10
26687;DHT22;14298;50.900;4.648;2023-02-19T16:55:52;9.40;97.10
26687;DHT22;14298;50.900;4.648;2023-02-19T16:58:21;9.40;97.10
26687;DHT22;14298;50.900;4.648;2023-02-19T17:00:49;9.30;97.10
26687;DHT22;14298;50.900;4.648;2023-02-19T17:03:20;9.30;97.10
26687;DHT22;14298;50.900;4.648;2023-02-19T17:05:49;9.30;97.10
26687;DHT22;14298;50.900;4.648;2023-02-19T17:11:17;9.30;97.10
26687;DHT22;14298;50.900;4.648;2023-02-19T17:13:46;9.30;97.10
26687;DHT22;14298;50.900;4.648;2023-02-19T17:16:21;9.30;97.10
26687;DHT22;14298;50.900;4.648;2023-02-19T17:18:49;9.20;97.10
26687;DHT22;14298;50.900;4.648;2023-02-19T17:21:27;9.20;97.10
26687;DHT22;14298;50.900;4.648;2023-02-19T17:23:52;9.20;97.10
26687;DHT22;14298;50.900;4.648;2023-02-19T17:26:30;9.10;97.10
26687;DHT22;14298;50.900;4.648;2023-02-19T17:29:00;9.10;97.10
26687;DHT22;14298;50.900;4.648;2023-02-19T17:31:29;9.10;97.10
26687;DHT22;14298;50.900;4.648;2023-02-19T17:33:57;9.00;97.10
26687;DHT22;14298;50.900;4.648;2023-02-19T17:36:28;9.00;97.10
26687;DHT22;14298;50.900;4.648;2023-02-19T17:38:58;9.00;97.10
26687;DHT22;14298;50.900;4.648;2023-02-19T17:41:27;9.00;97.10
26687;DHT22;14298;50.900;4.648;2023-02-19T17:43:56;9.00;97.10
26687;DHT22;14298;50.900;4.648;2023-02-19T17:46:25;9.00;97.10
26687;DHT22;14298;50.900;4.648;2023-02-19T17:48:54;9.10;97.10
26687;DHT22;14298;50.900;4.648;2023-02-19T17:51:23;9.00;97.10
26687;DHT22;14298;50.900;4.648;2023-02-19T17:53:51;9.00;97.10
26687;DHT22;14298;50.900;4.648;2023-02-19T17:56:22;9.00;97.10
26687;DHT22;14298;50.900;4.648;2023-02-19T17:58:52;9.00;97.10
26687;DHT22;14298;50.900;4.648;2023-02-19T18:01:21;9.00;97.10
26687;DHT22;14298;50.900;4.648;2023-02-19T18:03:50;9.00;97.10
26687;DHT22;14298;50.900;4.648;2023-02-19T18:06:19;9.00;97.10
26687;DHT22;14298;50.900;4.648;2023-02-19T18:08:49;9.00;97.10
26687;DHT22;14298;50.900;4.648;2023-02-19T18:11:19;9.00;97.10
26687;DHT22;14298;50.900;4.648;2023-02-19T18:13:49;9.00;97.10
26687;DHT22;14298;50.900;4.648;2023-02-19T18:16:18;9.00;97.10
26687;DHT22;14298;50.900;4.648;2023-02-19T18:18:47;9.00;97.10
26687;DHT22;14298;50.900;4.648;2023-02-19T18:21:15;9.00;97.10
26687;DHT22;14298;50.900;4.648;2023-02-19T18:23:45;9.10;97.10